createdAt,value
2022-08-01T00:01:14.712Z,100680.91
2022-08-01T00:03:17.318Z,100687.72
2022-08-01T00:05:20.301Z,100693.53
2022-08-01T00:07:22.920Z,100584.72
2022-08-01T00:09:25.499Z,100558.34
2022-08-01T00:11:28.388Z,100642.00
2022-08-01T00:13:30.965Z,100646.28
2022-08-01T00:15:34.821Z,100685.16
2022-08-01T00:17:37.833Z,100643.47
2022-08-01T00:19:40.410Z,100676.66
2022-08-01T00:22:02.743Z,100656.91
2022-08-01T00:24:05.596Z,100646.97
2022-08-01T00:26:08.191Z,100661.50
2022-08-01T00:28:10.931Z,100621.19
2022-08-01T00:30:14.967Z,100685.03
2022-08-01T00:32:18.188Z,100684.69
2022-08-01T00:34:20.945Z,100672.06
2022-08-01T00:36:23.668Z,100639.25
2022-08-01T00:38:26.348Z,100562.94
2022-08-01T00:40:29.389Z,100664.97
2022-08-01T00:42:31.916Z,100630.81
2022-08-01T00:44:35.619Z,100655.63
2022-08-01T00:46:38.342Z,100651.41
2022-08-01T00:48:42.607Z,100667.16
2022-08-01T00:50:45.289Z,100590.88
2022-08-01T00:52:51.335Z,100653.75
2022-08-01T00:54:54.177Z,100564.53
2022-08-01T00:56:57.426Z,100560.41
2022-08-01T00:59:00.057Z,100656.13
2022-08-01T01:01:03.795Z,100662.25
2022-08-01T01:03:07.139Z,100677.59
2022-08-01T01:05:09.974Z,100650.06
2022-08-01T01:07:30.439Z,100684.19
2022-08-01T01:10:01.426Z,100647.69
2022-08-01T01:12:21.590Z,100690.00
2022-08-01T01:14:47.845Z,100654.91
2022-08-01T01:16:51.734Z,100655.38
2022-08-01T01:19:03.660Z,100585.75
2022-08-01T01:21:19.175Z,100674.66
2022-08-01T01:23:51.858Z,100673.88
2022-08-01T01:26:24.773Z,100679.25
2022-08-01T01:29:05.737Z,100683.03
2022-08-01T01:31:11.887Z,100655.06
2022-08-01T01:33:16.931Z,100677.81
2022-08-01T01:35:25.851Z,100641.31
2022-08-01T01:37:29.507Z,100640.00
2022-08-01T01:39:33.806Z,100637.34
2022-08-01T01:41:39.263Z,100659.44
2022-08-01T01:43:42.539Z,100652.31
2022-08-01T01:45:48.446Z,100563.63
2022-08-01T01:47:52.067Z,100665.41
2022-08-01T01:49:56.676Z,100609.09
2022-08-01T01:52:03.183Z,100669.94
2022-08-01T01:54:08.125Z,100545.78
2022-08-01T01:56:12.445Z,100609.13
2022-08-01T01:58:20.806Z,100644.16
2022-08-01T02:00:25.005Z,100658.84
2022-08-01T02:02:28.664Z,100617.53
2022-08-01T02:04:34.307Z,100652.16
2022-08-01T02:06:38.705Z,100595.72
2022-08-01T02:08:42.962Z,100619.97
2022-08-01T02:11:07.683Z,100666.75
2022-08-01T02:13:12.058Z,100620.69
2022-08-01T02:15:16.938Z,100623.38
2022-08-01T02:17:22.298Z,100664.44
2022-08-01T02:19:24.936Z,100533.53
2022-08-01T02:21:46.928Z,100645.84
2022-08-01T02:23:51.180Z,100644.53
2022-08-01T02:26:10.431Z,100582.66
2022-08-01T02:28:20.073Z,100636.84
2022-08-01T02:30:26.018Z,100634.59
2022-08-01T02:32:53.094Z,100642.31
2022-08-01T02:34:58.302Z,100615.53
2022-08-01T02:37:02.722Z,100678.31
2022-08-01T02:39:10.887Z,100666.72
2022-08-01T02:41:20.530Z,100636.69
2022-08-01T02:43:27.870Z,100628.28
2022-08-01T02:45:31.370Z,100654.69
2022-08-01T02:47:34.840Z,100665.78
2022-08-01T02:49:53.224Z,100663.19
2022-08-01T02:51:57.847Z,100678.53
2022-08-01T02:54:03.066Z,100679.25
2022-08-01T02:56:07.408Z,100657.91
2022-08-01T02:58:11.881Z,100550.31
2022-08-01T03:00:17.866Z,100687.38
2022-08-01T03:02:23.976Z,100656.88
2022-08-01T03:04:27.815Z,100684.25
2022-08-01T03:06:31.273Z,100653.69
2022-08-01T03:08:36.102Z,100652.50
2022-08-01T03:10:41.952Z,100692.44
2022-08-01T03:12:48.263Z,100663.38
2022-08-01T03:14:53.076Z,100682.03
2022-08-01T03:16:57.048Z,100653.81
2022-08-01T03:19:02.303Z,100585.34
2022-08-01T03:21:06.285Z,100682.31
2022-08-01T03:23:11.258Z,100687.25
2022-08-01T03:25:16.474Z,100689.81
2022-08-01T03:27:23.898Z,100682.81
2022-08-01T03:29:29.118Z,100652.09
2022-08-01T03:31:32.042Z,100654.53
2022-08-01T03:33:35.106Z,100682.00
2022-08-01T03:35:47.076Z,100638.91
2022-08-01T03:38:15.185Z,100537.19
2022-08-01T03:40:25.761Z,100690.00
2022-08-01T03:42:35.060Z,100606.03
2022-08-01T03:44:40.285Z,100641.03
2022-08-01T03:46:55.381Z,100679.16
2022-08-01T03:49:03.500Z,100660.78
2022-08-01T03:51:08.577Z,100649.28
2022-08-01T03:53:12.314Z,100660.84
2022-08-01T03:55:18.010Z,100659.63
2022-08-01T03:57:36.981Z,100653.50
2022-08-01T03:59:41.053Z,100688.31
2022-08-01T04:01:45.467Z,100659.09
2022-08-01T04:03:48.510Z,100641.72
2022-08-01T04:05:51.607Z,100639.03
2022-08-01T04:07:57.027Z,100574.44
2022-08-01T04:10:00.054Z,100572.25
2022-08-01T04:12:12.136Z,100660.75
2022-08-01T04:14:15.791Z,100628.69
2022-08-01T04:16:18.381Z,100661.91
2022-08-01T04:18:20.943Z,100661.91
2022-08-01T04:20:23.801Z,100693.97
2022-08-01T04:22:28.232Z,100650.19
2022-08-01T04:24:33.768Z,100593.94
2022-08-01T04:26:38.409Z,100588.28
2022-08-01T04:28:43.838Z,100677.72
2022-08-01T04:30:50.356Z,100671.28
2022-08-01T04:32:56.534Z,100599.06
2022-08-01T04:35:01.483Z,100687.72
2022-08-01T04:37:06.069Z,100575.56
2022-08-01T04:39:10.149Z,100677.63
2022-08-01T04:41:14.900Z,100676.38
2022-08-01T04:43:17.852Z,100575.56
2022-08-01T04:45:20.783Z,100711.44
2022-08-01T04:47:24.343Z,100718.09
2022-08-01T04:49:27.077Z,100686.31
2022-08-01T04:51:29.979Z,100598.69
2022-08-01T04:53:33.494Z,100659.16
2022-08-01T04:55:36.666Z,100677.09
2022-08-01T04:57:42.521Z,100692.91
2022-08-01T04:59:45.602Z,100610.25
2022-08-01T05:01:51.936Z,100603.19
2022-08-01T05:03:54.687Z,100670.34
2022-08-01T05:05:57.259Z,100616.00
2022-08-01T05:08:00.381Z,100710.63
2022-08-01T05:10:06.819Z,100712.22
2022-08-01T05:12:11.978Z,100681.59
2022-08-01T05:14:14.686Z,100674.94
2022-08-01T05:16:18.008Z,100711.91
2022-08-01T05:18:27.906Z,100642.88
2022-08-01T05:20:33.957Z,100589.72
2022-08-01T05:22:36.605Z,100690.69
2022-08-01T05:24:40.949Z,100720.53
2022-08-01T05:26:44.335Z,100677.88
2022-08-01T05:28:47.078Z,100616.66
2022-08-01T05:30:49.745Z,100673.63
2022-08-01T05:32:52.393Z,100565.06
2022-08-01T05:34:54.967Z,100706.78
2022-08-01T05:36:57.844Z,100608.63
2022-08-01T05:39:01.009Z,100620.59
2022-08-01T05:41:03.826Z,100704.97
2022-08-01T05:43:06.437Z,100497.72
2022-08-01T05:45:09.634Z,100698.09
2022-08-01T05:47:12.290Z,100691.28
2022-08-01T05:49:15.046Z,100660.78
2022-08-01T05:51:17.699Z,100724.19
2022-08-01T05:53:20.264Z,100690.28
2022-08-01T05:55:22.894Z,100671.50
2022-08-01T05:57:26.275Z,100728.06
2022-08-01T05:59:31.591Z,100660.81
2022-08-01T06:01:34.202Z,100631.50
2022-08-01T06:03:37.220Z,100630.19
2022-08-01T06:05:39.863Z,100663.03
2022-08-01T06:07:42.675Z,100612.69
2022-08-01T06:09:45.265Z,100702.22
2022-08-01T06:11:47.908Z,100644.63
2022-08-01T06:13:50.518Z,100709.09
2022-08-01T06:15:53.378Z,100711.38
2022-08-01T06:17:56.194Z,100626.03
2022-08-01T06:19:58.862Z,100693.88
2022-08-01T06:22:01.583Z,100665.38
2022-08-01T06:24:04.827Z,100665.84
2022-08-01T06:26:07.405Z,100682.97
2022-08-01T06:28:10.440Z,100735.34
2022-08-01T06:30:13.332Z,100698.53
2022-08-01T06:32:19.101Z,100704.91
2022-08-01T06:34:29.159Z,100614.31
2022-08-01T06:36:32.715Z,100700.03
2022-08-01T06:38:35.614Z,100623.66
2022-08-01T06:40:39.363Z,100725.50
2022-08-01T06:42:42.283Z,100732.97
2022-08-01T06:44:44.988Z,100647.53
2022-08-01T06:46:47.581Z,100686.25
2022-08-01T06:48:50.384Z,100572.66
2022-08-01T06:51:08.950Z,100726.94
2022-08-01T06:53:11.803Z,100701.69
2022-08-01T06:55:15.216Z,100698.84
2022-08-01T06:57:18.527Z,100711.66
2022-08-01T06:59:21.145Z,100605.13
2022-08-01T07:01:24.709Z,100715.50
2022-08-01T07:03:52.805Z,100661.66
2022-08-01T07:05:50.796Z,100634.69
2022-08-01T07:07:53.474Z,100720.69
2022-08-01T07:09:56.067Z,100656.63
2022-08-01T07:11:59.707Z,100690.59
2022-08-01T07:14:02.361Z,100707.44
2022-08-01T07:16:05.185Z,100621.94
2022-08-01T07:18:07.739Z,100691.38
2022-08-01T07:20:14.033Z,100708.88
2022-08-01T07:22:23.474Z,100702.06
2022-08-01T07:24:26.889Z,100718.00
2022-08-01T07:26:31.639Z,100720.69
2022-08-01T07:28:34.285Z,100727.59
2022-08-01T07:30:37.249Z,100702.47
2022-08-01T07:32:39.842Z,100650.28
2022-08-01T07:34:42.418Z,100659.31
2022-08-01T07:36:45.129Z,100756.13
2022-08-01T07:38:48.490Z,100674.75
2022-08-01T07:40:51.097Z,100753.72
2022-08-01T07:42:53.739Z,100672.13
2022-08-01T07:44:56.359Z,100715.63
2022-08-01T07:46:59.269Z,100771.38
2022-08-01T07:49:01.885Z,100733.28
2022-08-01T07:51:04.514Z,100768.00
2022-08-01T07:53:07.317Z,100755.97
2022-08-01T07:55:11.120Z,100776.25
2022-08-01T07:57:13.646Z,100780.16
2022-08-01T07:59:17.483Z,100687.94
2022-08-01T08:01:31.016Z,100771.94
2022-08-01T08:03:33.862Z,100701.28
2022-08-01T08:05:57.688Z,100676.28
2022-08-01T08:07:59.455Z,100688.00
2022-08-01T08:10:02.175Z,100720.16
2022-08-01T08:12:06.424Z,100747.19
2022-08-01T08:14:09.251Z,100738.03
2022-08-01T08:16:11.997Z,100756.84
2022-08-01T08:18:14.832Z,100701.56
2022-08-01T08:20:17.468Z,100807.94
2022-08-01T08:22:20.181Z,100746.50
2022-08-01T08:24:26.716Z,100766.38
2022-08-01T08:26:31.963Z,100731.28
2022-08-01T08:28:34.586Z,100792.22
2022-08-01T08:30:37.164Z,100687.22
2022-08-01T08:32:40.193Z,100803.28
2022-08-01T08:34:42.939Z,100804.75
2022-08-01T08:36:47.695Z,100788.53
2022-08-01T08:38:50.959Z,100756.44
2022-08-01T08:40:54.319Z,100814.63
2022-08-01T08:42:59.304Z,100812.72
2022-08-01T08:45:02.956Z,100744.34
2022-08-01T08:47:09.277Z,100787.31
2022-08-01T08:49:16.697Z,100794.69
2022-08-01T08:51:20.285Z,100804.59
2022-08-01T08:53:23.330Z,100808.81
2022-08-01T08:55:29.449Z,100747.34
2022-08-01T08:57:32.307Z,100702.16
2022-08-01T08:59:35.391Z,100723.69
2022-08-01T09:01:38.148Z,100709.63
2022-08-01T09:03:41.932Z,100819.13
2022-08-01T09:05:45.285Z,100825.44
2022-08-01T09:07:48.156Z,100775.94
2022-08-01T09:09:51.380Z,100789.25
2022-08-01T09:11:57.995Z,100800.94
2022-08-01T09:14:16.092Z,100807.59
2022-08-01T09:16:20.467Z,100766.09
2022-08-01T09:18:40.437Z,100811.72
2022-08-01T09:20:43.100Z,100665.56
2022-08-01T09:22:47.944Z,100818.59
2022-08-01T09:25:01.475Z,100787.78
2022-08-01T09:27:21.894Z,100814.31
2022-08-01T09:29:37.868Z,100841.00
2022-08-01T09:31:47.189Z,100751.72
2022-08-01T09:34:03.585Z,100821.50
2022-08-01T09:36:06.472Z,100845.16
2022-08-01T09:38:20.271Z,100745.56
2022-08-01T09:40:22.928Z,100719.25
2022-08-01T09:42:29.729Z,100723.88
2022-08-01T09:44:54.605Z,100851.38
2022-08-01T09:46:58.196Z,100867.06
2022-08-01T09:49:07.381Z,100824.38
2022-08-01T09:51:14.033Z,100844.63
2022-08-01T09:53:51.976Z,100818.94
2022-08-01T09:55:56.257Z,100834.91
2022-08-01T09:58:01.935Z,100861.75
2022-08-01T10:00:06.792Z,100866.84
2022-08-01T10:02:34.490Z,100844.84
2022-08-01T10:04:37.367Z,100833.91
2022-08-01T10:06:46.199Z,100832.63
2022-08-01T10:08:49.491Z,100810.81
2022-08-01T10:11:22.430Z,100848.00
2022-08-01T10:13:38.845Z,100849.91
2022-08-01T10:15:42.370Z,100844.09
2022-08-01T10:17:57.693Z,100884.34
2022-08-01T10:20:03.623Z,100853.84
2022-08-01T10:22:11.747Z,100854.25
2022-08-01T10:24:23.699Z,100847.44
2022-08-01T10:26:28.267Z,100882.22
2022-08-01T10:28:39.264Z,100895.16
2022-08-01T10:30:43.593Z,100777.50
2022-08-01T10:32:49.753Z,100899.56
2022-08-01T10:34:54.376Z,100877.44
2022-08-01T10:36:58.273Z,100847.97
2022-08-01T10:39:02.585Z,100866.69
2022-08-01T10:41:09.054Z,100835.72
2022-08-01T10:43:13.652Z,100891.84
2022-08-01T10:45:27.658Z,100888.56
2022-08-01T10:48:06.910Z,100894.88
2022-08-01T10:50:36.243Z,100868.59
2022-08-01T10:52:39.815Z,100883.22
2022-08-01T10:54:52.647Z,100784.75
2022-08-01T10:57:00.758Z,100875.81
2022-08-01T10:59:06.191Z,100847.44
2022-08-01T11:01:22.798Z,100888.81
2022-08-01T11:03:55.980Z,100893.97
2022-08-01T11:05:59.459Z,100877.28
2022-08-01T11:08:12.200Z,100900.53
2022-08-01T11:10:39.779Z,100887.84
2022-08-01T11:12:44.273Z,100896.47
2022-08-01T11:15:08.547Z,100880.78
2022-08-01T11:17:49.588Z,100890.88
2022-08-01T11:20:17.647Z,100896.09
2022-08-01T11:22:25.168Z,100858.06
2022-08-01T11:24:49.857Z,100883.41
2022-08-01T11:27:20.539Z,100871.56
2022-08-01T11:29:28.139Z,100852.63
2022-08-01T11:31:37.895Z,100853.28
2022-08-01T11:33:45.814Z,100885.84
2022-08-01T11:36:10.962Z,100891.81
2022-08-01T11:38:31.603Z,100899.06
2022-08-01T11:40:34.366Z,100788.06
2022-08-01T11:42:37.215Z,100855.38
2022-08-01T11:44:52.533Z,100842.59
2022-08-01T11:47:09.636Z,100791.47
2022-08-01T11:49:48.686Z,100901.88
2022-08-01T11:52:15.395Z,100908.66
2022-08-01T11:54:35.425Z,100863.53
2022-08-01T11:56:44.763Z,100868.41
2022-08-01T11:58:51.386Z,100845.91
2022-08-01T12:00:56.112Z,100888.00
2022-08-01T12:03:05.313Z,100826.56
2022-08-01T12:05:15.655Z,100898.09
2022-08-01T12:07:20.151Z,100877.69
2022-08-01T12:09:25.486Z,100908.31
2022-08-01T12:11:37.254Z,100823.19
2022-08-01T12:13:45.858Z,100894.63
2022-08-01T12:15:54.868Z,100894.63
2022-08-01T12:18:05.568Z,100873.97
2022-08-01T12:20:12.324Z,100891.97
2022-08-01T12:22:16.293Z,100887.75
2022-08-01T12:24:23.891Z,100899.72
2022-08-01T12:26:44.261Z,100911.97
2022-08-01T12:28:46.806Z,100876.03
2022-08-01T12:30:50.622Z,100832.59
2022-08-01T12:32:54.898Z,100880.63
2022-08-01T12:35:02.683Z,100908.31
2022-08-01T12:37:06.062Z,100812.34
2022-08-01T12:39:09.227Z,100893.63
2022-08-01T12:41:12.736Z,100863.34
2022-08-01T12:43:28.470Z,100907.88
2022-08-01T12:45:57.146Z,100880.19
2022-08-01T12:48:01.281Z,100889.97
2022-08-01T12:50:09.111Z,100870.84
2022-08-01T12:52:13.470Z,100905.63
2022-08-01T12:54:18.699Z,100883.78
2022-08-01T12:56:34.051Z,100900.88
2022-08-01T12:58:36.787Z,100901.59
2022-08-01T13:00:43.113Z,100912.16
2022-08-01T13:02:49.662Z,100922.09
2022-08-01T13:04:53.315Z,100893.59
2022-08-01T13:06:55.937Z,100884.34
2022-08-01T13:09:10.180Z,100917.84
2022-08-01T13:11:15.941Z,100887.88
2022-08-01T13:13:28.162Z,100892.56
2022-08-01T13:15:35.588Z,100899.88
2022-08-01T13:17:39.640Z,100879.91
2022-08-01T13:19:50.664Z,100811.72
2022-08-01T13:21:58.521Z,100934.13
2022-08-01T13:24:11.808Z,100941.91
2022-08-01T13:26:14.418Z,100834.91
2022-08-01T13:28:29.246Z,100940.66
2022-08-01T13:30:31.972Z,100922.91
2022-08-01T13:32:34.583Z,100813.50
2022-08-01T13:34:38.798Z,100933.41
2022-08-01T13:36:48.741Z,100949.72
2022-08-01T13:39:10.541Z,100912.38
2022-08-01T13:41:13.667Z,100906.28
2022-08-01T13:43:16.619Z,100945.72
2022-08-01T13:45:22.211Z,100921.19
2022-08-01T13:47:32.008Z,100915.53
2022-08-01T13:49:37.593Z,100944.16
2022-08-01T13:51:43.941Z,100806.72
2022-08-01T13:53:46.500Z,100854.53
2022-08-01T13:55:49.141Z,100787.34
2022-08-01T13:57:51.715Z,100898.25
2022-08-01T13:59:54.371Z,100824.53
2022-08-01T14:01:57.045Z,100855.97
2022-08-01T14:04:01.018Z,100904.72
2022-08-01T14:06:04.560Z,100948.78
2022-08-01T14:08:07.816Z,100846.84
2022-08-01T14:10:19.324Z,100923.56
2022-08-01T14:12:23.871Z,100944.16
2022-08-01T14:14:26.541Z,100849.91
2022-08-01T14:16:29.416Z,100934.63
2022-08-01T14:18:32.532Z,100961.00
2022-08-01T14:20:38.206Z,100923.38
2022-08-01T14:22:41.682Z,100864.44
2022-08-01T14:24:44.355Z,100844.28
2022-08-01T14:26:47.179Z,100815.22
2022-08-01T14:28:49.992Z,100924.81
2022-08-01T14:30:52.583Z,100950.53
2022-08-01T14:32:55.156Z,100933.34
2022-08-01T14:34:57.959Z,100816.63
2022-08-01T14:37:00.569Z,100872.28
2022-08-01T14:39:03.655Z,100941.78
2022-08-01T14:41:07.139Z,100930.38
2022-08-01T14:43:24.943Z,100956.56
2022-08-01T14:45:36.203Z,100966.91
2022-08-01T14:47:41.529Z,100874.09
2022-08-01T14:49:45.504Z,100873.75
2022-08-01T14:51:48.392Z,100932.22
2022-08-01T14:53:53.291Z,100952.13
2022-08-01T14:55:55.983Z,100943.72
2022-08-01T14:57:58.542Z,100951.06
2022-08-01T15:00:01.905Z,100952.41
2022-08-01T15:02:05.140Z,100947.78
2022-08-01T15:04:10.959Z,100965.72
2022-08-01T15:06:13.706Z,100911.34
2022-08-01T15:08:17.200Z,100961.34
2022-08-01T15:10:19.801Z,100949.00
2022-08-01T15:12:22.348Z,100956.31
2022-08-01T15:14:43.302Z,100955.41
2022-08-01T15:16:47.690Z,100977.81
2022-08-01T15:18:52.361Z,100931.16
2022-08-01T15:20:58.510Z,100950.75
2022-08-01T15:23:02.360Z,100929.91
2022-08-01T15:25:05.600Z,100941.19
2022-08-01T15:27:08.275Z,100975.88
2022-08-01T15:29:10.830Z,100881.91
2022-08-01T15:31:14.402Z,100969.34
2022-08-01T15:33:17.853Z,100865.22
2022-08-01T15:35:20.463Z,100866.13
2022-08-01T15:37:23.237Z,100995.44
2022-08-01T15:39:26.658Z,100958.69
2022-08-01T15:41:29.227Z,100938.41
2022-08-01T15:43:31.809Z,100974.94
2022-08-01T15:45:50.037Z,100890.75
2022-08-01T15:47:53.106Z,100961.22
2022-08-01T15:50:00.399Z,100960.31
2022-08-01T15:52:05.111Z,100899.69
2022-08-01T15:54:14.237Z,100940.44
2022-08-01T15:56:17.242Z,100961.16
2022-08-01T15:58:21.177Z,100941.22
2022-08-01T16:00:23.839Z,100952.81
2022-08-01T16:02:27.836Z,100925.56
2022-08-01T16:04:32.189Z,100970.66
2022-08-01T16:06:36.043Z,100985.75
2022-08-01T16:08:38.747Z,100952.69
2022-08-01T16:10:41.962Z,100978.97
2022-08-01T16:12:44.605Z,100959.66
2022-08-01T16:14:47.361Z,100956.56
2022-08-01T16:16:51.045Z,100933.66
2022-08-01T16:18:54.119Z,100977.47
2022-08-01T16:20:58.907Z,100978.56
2022-08-01T16:23:01.852Z,100929.88
2022-08-01T16:25:05.610Z,100982.50
2022-08-01T16:27:08.742Z,100930.00
2022-08-01T16:29:11.473Z,100948.47
2022-08-01T16:31:22.048Z,100949.34
2022-08-01T16:33:53.239Z,100922.25
2022-08-01T16:35:57.945Z,100957.50
2022-08-01T16:38:01.301Z,100962.81
2022-08-01T16:40:04.649Z,100977.50
2022-08-01T16:42:07.611Z,100963.97
2022-08-01T16:44:10.493Z,100915.34
2022-08-01T16:46:13.042Z,100971.59
2022-08-01T16:48:18.374Z,100989.19
2022-08-01T16:50:28.739Z,100987.63
2022-08-01T16:52:31.732Z,100961.72
2022-08-01T16:54:34.370Z,100944.22
2022-08-01T16:56:36.978Z,100963.69
2022-08-01T16:58:39.590Z,100990.53
2022-08-01T17:00:43.954Z,100984.69
2022-08-01T17:02:59.302Z,100961.00
2022-08-01T17:05:08.481Z,100958.19
2022-08-01T17:07:15.401Z,100962.38
2022-08-01T17:09:19.085Z,100984.34
2022-08-01T17:11:21.683Z,100961.34
2022-08-01T17:13:24.281Z,100995.38
2022-08-01T17:15:27.232Z,100994.09
2022-08-01T17:17:30.305Z,100956.13
2022-08-01T17:19:33.406Z,100950.41
2022-08-01T17:21:39.794Z,100977.13
2022-08-01T17:23:43.963Z,100981.25
2022-08-01T17:25:46.645Z,100960.47
2022-08-01T17:27:51.876Z,100967.63
2022-08-01T17:29:54.453Z,100955.19
2022-08-01T17:31:57.128Z,100978.78
2022-08-01T17:33:59.857Z,100952.41
2022-08-01T17:36:02.460Z,100948.03
2022-08-01T17:38:05.081Z,100917.00
2022-08-01T17:40:30.707Z,100929.22
2022-08-01T17:42:33.447Z,100951.75
2022-08-01T17:44:36.392Z,100954.00
2022-08-01T17:46:40.215Z,100992.28
2022-08-01T17:48:44.421Z,100915.91
2022-08-01T17:50:48.786Z,100995.47
2022-08-01T17:52:51.380Z,100967.16
2022-08-01T17:54:54.162Z,100985.50
2022-08-01T17:56:56.756Z,100904.47
2022-08-01T17:58:59.491Z,100946.41
2022-08-01T18:01:02.148Z,100871.75
2022-08-01T18:03:08.266Z,100893.09
2022-08-01T18:05:11.120Z,100875.34
2022-08-01T18:07:20.224Z,101000.66
2022-08-01T18:09:23.758Z,100916.91
2022-08-01T18:11:27.830Z,100999.09
2022-08-01T18:13:30.530Z,100946.66
2022-08-01T18:15:33.355Z,100988.28
2022-08-01T18:17:37.365Z,100964.38
2022-08-01T18:19:40.426Z,101007.72
2022-08-01T18:21:43.317Z,100956.91
2022-08-01T18:23:51.697Z,100980.03
2022-08-01T18:26:02.554Z,100928.44
2022-08-01T18:28:16.362Z,100973.03
2022-08-01T18:30:30.439Z,101010.50
2022-08-01T18:32:50.536Z,101013.22
2022-08-01T18:34:53.130Z,101017.63
2022-08-01T18:36:56.472Z,101009.84
2022-08-01T18:39:10.357Z,100968.34
2022-08-01T18:41:14.176Z,100938.38
2022-08-01T18:43:16.778Z,100999.97
2022-08-01T18:45:19.477Z,101009.44
2022-08-01T18:47:25.024Z,100995.50
2022-08-01T18:49:29.241Z,100984.34
2022-08-01T18:51:32.082Z,101046.31
2022-08-01T18:53:35.428Z,100985.91
2022-08-01T18:55:38.032Z,100947.72
2022-08-01T18:57:42.603Z,101021.97
2022-08-01T18:59:45.577Z,101038.66
2022-08-01T19:01:48.259Z,101051.56
2022-08-01T19:03:50.886Z,100995.72
2022-08-01T19:05:53.671Z,101040.22
2022-08-01T19:08:06.089Z,101020.56
2022-08-01T19:10:11.512Z,101034.13
2022-08-01T19:12:21.014Z,100886.00
2022-08-01T19:14:23.634Z,100961.38
2022-08-01T19:16:27.870Z,101053.72
2022-08-01T19:18:30.470Z,101023.91
2022-08-01T19:20:34.219Z,101071.22
2022-08-01T19:22:36.950Z,101066.81
2022-08-01T19:24:40.889Z,100942.88
2022-08-01T19:26:52.127Z,101066.09
2022-08-01T19:29:18.983Z,101069.56
2022-08-01T19:31:28.040Z,101048.38
2022-08-01T19:33:37.229Z,101084.25
2022-08-01T19:35:39.965Z,101046.81
2022-08-01T19:37:47.410Z,101041.66
2022-08-01T19:39:50.654Z,101084.91
2022-08-01T19:41:55.960Z,101063.50
2022-08-01T19:44:03.639Z,101081.75
2022-08-01T19:46:07.163Z,101019.16
2022-08-01T19:48:20.915Z,101076.03
2022-08-01T19:50:28.401Z,101097.06
2022-08-01T19:52:37.778Z,101066.09
2022-08-01T19:54:45.659Z,101100.25
2022-08-01T19:56:49.182Z,101055.28
2022-08-01T19:58:58.856Z,101072.94
2022-08-01T20:01:03.022Z,100999.59
2022-08-01T20:03:07.655Z,101110.91
2022-08-01T20:05:10.666Z,101062.69
2022-08-01T20:07:13.949Z,101121.63
2022-08-01T20:09:16.830Z,101096.63
2022-08-01T20:11:22.222Z,101013.63
2022-08-01T20:13:25.254Z,101100.66
2022-08-01T20:15:45.989Z,101053.19
2022-08-01T20:17:48.575Z,101060.63
2022-08-01T20:19:51.753Z,101094.22
2022-08-01T20:22:03.778Z,101052.41
2022-08-01T20:24:14.346Z,101089.56
2022-08-01T20:26:22.201Z,101119.91
2022-08-01T20:28:29.087Z,101117.88
2022-08-01T20:30:31.955Z,101061.09
2022-08-01T20:32:40.311Z,101143.06
2022-08-01T20:34:49.299Z,101126.59
2022-08-01T20:36:59.433Z,101120.88
2022-08-01T20:39:04.739Z,101039.59
2022-08-01T20:41:12.070Z,101122.03
2022-08-01T20:43:17.907Z,101160.28
2022-08-01T20:45:23.289Z,101143.94
2022-08-01T20:47:26.269Z,101134.97
2022-08-01T20:49:31.479Z,101153.63
2022-08-01T20:51:42.071Z,101027.09
2022-08-01T20:53:52.882Z,101162.16
2022-08-01T20:56:20.265Z,101160.88
2022-08-01T20:58:53.343Z,101175.59
2022-08-01T21:01:03.498Z,101174.59
2022-08-01T21:03:23.995Z,101132.22
2022-08-01T21:05:37.477Z,101130.66
2022-08-01T21:08:03.906Z,101160.81
2022-08-01T21:10:12.315Z,101102.56
2022-08-01T21:12:27.784Z,101066.38
2022-08-01T21:14:52.159Z,101177.47
2022-08-01T21:17:06.903Z,101083.19
2022-08-01T21:19:27.148Z,101125.31
2022-08-01T21:21:31.017Z,101060.34
2022-08-01T21:24:16.002Z,101166.94
2022-08-01T21:26:21.700Z,101132.69
2022-08-01T21:28:26.291Z,101081.81
2022-08-01T21:30:35.335Z,101195.03
2022-08-01T21:32:42.949Z,101175.44
2022-08-01T21:34:48.097Z,101183.63
2022-08-01T21:37:52.675Z,101195.91
2022-08-01T21:39:57.931Z,101130.72
2022-08-01T21:42:04.097Z,101145.91
2022-08-01T21:44:16.045Z,101175.16
2022-08-01T21:46:21.429Z,101195.34
2022-08-01T21:48:25.916Z,101145.53
2022-08-01T21:50:38.370Z,101169.00
2022-08-01T21:53:02.604Z,101165.91
2022-08-01T21:55:33.984Z,101210.53
2022-08-01T21:58:29.220Z,101178.84
2022-08-01T22:00:36.852Z,101207.34
2022-08-01T22:02:53.861Z,101216.34
2022-08-01T22:05:10.762Z,101132.09
2022-08-01T22:07:17.727Z,101183.91
2022-08-01T22:09:22.054Z,101098.97
2022-08-01T22:11:30.440Z,101226.34
2022-08-01T22:13:35.810Z,101213.63
2022-08-01T22:15:44.752Z,101196.94
2022-08-01T22:17:51.535Z,101020.75
2022-08-01T22:19:56.314Z,101198.94
2022-08-01T22:21:59.819Z,101200.38
2022-08-01T22:24:07.070Z,101174.28
2022-08-01T22:26:12.470Z,101130.81
2022-08-01T22:28:19.682Z,101165.03
2022-08-01T22:30:22.543Z,101126.50
2022-08-01T22:32:34.152Z,101203.72
2022-08-01T22:34:37.574Z,101178.00
2022-08-01T22:36:40.194Z,101161.06
2022-08-01T22:38:42.848Z,101178.50
2022-08-01T22:40:58.562Z,101221.94
2022-08-01T22:43:08.182Z,101228.31
2022-08-01T22:45:18.359Z,101135.38
2022-08-01T22:48:00.200Z,101239.09
2022-08-01T22:50:07.699Z,101240.13
2022-08-01T22:53:06.634Z,101234.00
2022-08-01T22:55:11.546Z,101204.78
2022-08-01T22:57:31.773Z,101238.53
2022-08-01T23:00:08.269Z,101203.28
2022-08-01T23:02:17.348Z,101237.53
2022-08-01T23:04:33.330Z,101220.56
2022-08-01T23:06:47.222Z,101072.25
2022-08-01T23:08:51.024Z,101213.50
2022-08-01T23:11:05.891Z,101229.53
2022-08-01T23:13:09.097Z,101215.53
2022-08-01T23:15:12.174Z,101243.50
2022-08-01T23:17:27.711Z,101121.50
2022-08-01T23:19:33.779Z,101248.47
2022-08-01T23:21:41.721Z,101236.56
2022-08-01T23:23:47.301Z,101228.09
2022-08-01T23:25:49.927Z,101220.88
2022-08-01T23:28:05.541Z,101237.84
2022-08-01T23:30:09.683Z,101151.31
2022-08-01T23:32:12.549Z,101209.66
2022-08-01T23:34:19.422Z,101192.09
2022-08-01T23:36:22.823Z,101209.09
2022-08-01T23:38:25.616Z,101253.94
2022-08-01T23:40:28.327Z,101114.81
2022-08-01T23:42:31.118Z,101229.72
2022-08-01T23:44:34.675Z,101190.13
2022-08-01T23:46:37.563Z,101212.09
2022-08-01T23:48:40.416Z,101236.25
2022-08-01T23:50:43.096Z,101137.75
2022-08-01T23:52:51.618Z,101237.47
2022-08-01T23:54:55.237Z,101168.22
2022-08-01T23:57:00.137Z,101201.59
2022-08-01T23:59:05.781Z,101215.34
